sensor_id;sensor_type;location;lat;lon;timestamp;P1;durP1;ratioP1;P2;durP2;ratioP2
71303;SDS011;59091;47.446;19.148;2023-06-24T00:01:57;6.53;;;5.28;;
71303;SDS011;59091;47.446;19.148;2023-06-24T00:04:22;7.05;;;5.80;;
71303;SDS011;59091;47.446;19.148;2023-06-24T00:06:48;5.45;;;4.95;;
71303;SDS011;59091;47.446;19.148;2023-06-24T00:09:13;8.45;;;5.75;;
71303;SDS011;59091;47.446;19.148;2023-06-24T00:11:39;7.22;;;5.40;;
71303;SDS011;59091;47.446;19.148;2023-06-24T00:14:04;6.85;;;5.63;;
71303;SDS011;59091;47.446;19.148;2023-06-24T00:16:31;11.02;;;5.78;;
71303;SDS011;59091;47.446;19.148;2023-06-24T00:18:57;6.68;;;5.28;;
71303;SDS011;59091;47.446;19.148;2023-06-24T00:21:24;5.60;;;5.05;;
71303;SDS011;59091;47.446;19.148;2023-06-24T00:23:55;8.80;;;5.35;;
71303;SDS011;59091;47.446;19.148;2023-06-24T00:26:23;7.82;;;5.30;;
71303;SDS011;59091;47.446;19.148;2023-06-24T00:28:49;8.13;;;5.50;;
71303;SDS011;59091;47.446;19.148;2023-06-24T00:31:14;10.40;;;5.82;;
71303;SDS011;59091;47.446;19.148;2023-06-24T00:33:39;6.28;;;5.07;;
71303;SDS011;59091;47.446;19.148;2023-06-24T00:36:05;6.70;;;5.25;;
71303;SDS011;59091;47.446;19.148;2023-06-24T00:38:33;6.30;;;4.45;;
71303;SDS011;59091;47.446;19.148;2023-06-24T00:40:59;9.68;;;5.10;;
71303;SDS011;59091;47.446;19.148;2023-06-24T00:43:24;10.25;;;5.20;;
71303;SDS011;59091;47.446;19.148;2023-06-24T00:45:50;6.32;;;4.57;;
71303;SDS011;59091;47.446;19.148;2023-06-24T00:48:17;9.60;;;4.50;;
71303;SDS011;59091;47.446;19.148;2023-06-24T00:50:43;5.22;;;4.72;;
71303;SDS011;59091;47.446;19.148;2023-06-24T00:53:10;7.75;;;4.32;;
71303;SDS011;59091;47.446;19.148;2023-06-24T00:55:37;5.80;;;4.50;;
71303;SDS011;59091;47.446;19.148;2023-06-24T00:58:02;7.63;;;4.00;;
71303;SDS011;59091;47.446;19.148;2023-06-24T01:00:28;7.35;;;4.28;;
71303;SDS011;59091;47.446;19.148;2023-06-24T01:02:57;6.97;;;4.63;;
71303;SDS011;59091;47.446;19.148;2023-06-24T01:05:24;8.02;;;4.05;;
71303;SDS011;59091;47.446;19.148;2023-06-24T01:07:50;8.50;;;4.88;;
71303;SDS011;59091;47.446;19.148;2023-06-24T01:10:20;5.88;;;4.50;;
71303;SDS011;59091;47.446;19.148;2023-06-24T01:12:47;5.38;;;4.50;;
71303;SDS011;59091;47.446;19.148;2023-06-24T01:15:13;5.40;;;4.40;;
71303;SDS011;59091;47.446;19.148;2023-06-24T01:32:33;4.80;;;4.30;;
71303;SDS011;59091;47.446;19.148;2023-06-24T01:35:14;5.80;;;4.25;;
71303;SDS011;59091;47.446;19.148;2023-06-24T01:37:46;6.95;;;4.28;;
71303;SDS011;59091;47.446;19.148;2023-06-24T01:42:47;6.50;;;3.75;;
71303;SDS011;59091;47.446;19.148;2023-06-24T01:45:14;4.40;;;3.78;;
71303;SDS011;59091;47.446;19.148;2023-06-24T01:47:46;4.50;;;3.72;;
71303;SDS011;59091;47.446;19.148;2023-06-24T01:50:13;6.32;;;3.80;;
71303;SDS011;59091;47.446;19.148;2023-06-24T01:52:41;4.20;;;3.80;;
71303;SDS011;59091;47.446;19.148;2023-06-24T01:55:10;8.43;;;3.75;;
71303;SDS011;59091;47.446;19.148;2023-06-24T01:57:38;4.88;;;3.70;;
71303;SDS011;59091;47.446;19.148;2023-06-24T02:00:06;5.35;;;3.85;;
71303;SDS011;59091;47.446;19.148;2023-06-24T02:02:34;4.20;;;3.72;;
71303;SDS011;59091;47.446;19.148;2023-06-24T02:05:02;3.78;;;3.38;;
71303;SDS011;59091;47.446;19.148;2023-06-24T02:07:29;4.13;;;3.70;;
71303;SDS011;59091;47.446;19.148;2023-06-24T02:09:56;4.72;;;3.55;;
71303;SDS011;59091;47.446;19.148;2023-06-24T02:12:24;4.00;;;3.60;;
71303;SDS011;59091;47.446;19.148;2023-06-24T02:14:52;6.15;;;3.90;;
71303;SDS011;59091;47.446;19.148;2023-06-24T02:17:20;4.97;;;3.80;;
71303;SDS011;59091;47.446;19.148;2023-06-24T02:19:48;7.82;;;3.80;;
71303;SDS011;59091;47.446;19.148;2023-06-24T02:22:15;4.13;;;3.72;;
71303;SDS011;59091;47.446;19.148;2023-06-24T02:24:42;3.60;;;3.28;;
71303;SDS011;59091;47.446;19.148;2023-06-24T02:27:08;4.18;;;3.40;;
71303;SDS011;59091;47.446;19.148;2023-06-24T02:29:36;3.85;;;3.53;;
71303;SDS011;59091;47.446;19.148;2023-06-24T02:32:04;3.70;;;3.30;;
71303;SDS011;59091;47.446;19.148;2023-06-24T02:34:30;4.00;;;3.45;;
71303;SDS011;59091;47.446;19.148;2023-06-24T02:36:55;5.47;;;3.50;;
71303;SDS011;59091;47.446;19.148;2023-06-24T02:39:21;7.43;;;3.95;;
71303;SDS011;59091;47.446;19.148;2023-06-24T02:41:47;5.78;;;3.40;;
71303;SDS011;59091;47.446;19.148;2023-06-24T02:44:14;7.03;;;4.10;;
71303;SDS011;59091;47.446;19.148;2023-06-24T02:46:40;3.97;;;3.45;;
71303;SDS011;59091;47.446;19.148;2023-06-24T02:49:11;4.40;;;3.22;;
71303;SDS011;59091;47.446;19.148;2023-06-24T02:51:38;4.88;;;3.25;;
71303;SDS011;59091;47.446;19.148;2023-06-24T02:54:04;6.43;;;3.60;;
71303;SDS011;59091;47.446;19.148;2023-06-24T02:56:30;3.65;;;3.33;;
71303;SDS011;59091;47.446;19.148;2023-06-24T02:58:56;4.75;;;3.10;;
71303;SDS011;59091;47.446;19.148;2023-06-24T03:01:22;5.70;;;2.97;;
71303;SDS011;59091;47.446;19.148;2023-06-24T03:03:53;4.20;;;3.08;;
71303;SDS011;59091;47.446;19.148;2023-06-24T03:06:19;4.00;;;2.90;;
71303;SDS011;59091;47.446;19.148;2023-06-24T03:08:46;3.22;;;2.90;;
71303;SDS011;59091;47.446;19.148;2023-06-24T03:11:12;3.72;;;2.92;;
71303;SDS011;59091;47.446;19.148;2023-06-24T03:13:41;3.67;;;2.70;;
71303;SDS011;59091;47.446;19.148;2023-06-24T03:16:07;3.45;;;2.65;;
71303;SDS011;59091;47.446;19.148;2023-06-24T03:18:40;4.13;;;2.63;;
71303;SDS011;59091;47.446;19.148;2023-06-24T03:21:07;3.88;;;2.78;;
71303;SDS011;59091;47.446;19.148;2023-06-24T03:23:34;6.15;;;3.00;;
71303;SDS011;59091;47.446;19.148;2023-06-24T03:25:59;2.72;;;2.47;;
71303;SDS011;59091;47.446;19.148;2023-06-24T03:28:25;4.13;;;2.30;;
71303;SDS011;59091;47.446;19.148;2023-06-24T03:30:51;2.90;;;2.50;;
71303;SDS011;59091;47.446;19.148;2023-06-24T03:33:16;5.35;;;2.50;;
71303;SDS011;59091;47.446;19.148;2023-06-24T03:35:42;2.83;;;2.45;;
71303;SDS011;59091;47.446;19.148;2023-06-24T03:38:08;3.00;;;2.70;;
71303;SDS011;59091;47.446;19.148;2023-06-24T03:40:34;2.67;;;2.42;;
71303;SDS011;59091;47.446;19.148;2023-06-24T03:42:59;6.28;;;2.80;;
71303;SDS011;59091;47.446;19.148;2023-06-24T03:45:25;3.42;;;2.63;;
71303;SDS011;59091;47.446;19.148;2023-06-24T03:47:50;5.63;;;2.40;;
71303;SDS011;59091;47.446;19.148;2023-06-24T03:50:16;7.93;;;2.50;;
71303;SDS011;59091;47.446;19.148;2023-06-24T03:52:41;5.38;;;2.90;;
71303;SDS011;59091;47.446;19.148;2023-06-24T03:55:09;3.33;;;2.65;;
71303;SDS011;59091;47.446;19.148;2023-06-24T03:57:34;2.97;;;2.60;;
71303;SDS011;59091;47.446;19.148;2023-06-24T04:00:00;4.13;;;2.42;;
71303;SDS011;59091;47.446;19.148;2023-06-24T04:02:25;2.40;;;2.17;;
71303;SDS011;59091;47.446;19.148;2023-06-24T04:04:51;2.70;;;2.50;;
71303;SDS011;59091;47.446;19.148;2023-06-24T04:07:17;4.25;;;2.42;;
71303;SDS011;59091;47.446;19.148;2023-06-24T04:09:53;2.88;;;2.30;;
71303;SDS011;59091;47.446;19.148;2023-06-24T04:12:20;2.20;;;2.00;;
71303;SDS011;59091;47.446;19.148;2023-06-24T04:14:45;2.47;;;2.28;;
71303;SDS011;59091;47.446;19.148;2023-06-24T04:17:10;2.45;;;2.00;;
71303;SDS011;59091;47.446;19.148;2023-06-24T04:19:36;2.25;;;1.85;;
71303;SDS011;59091;47.446;19.148;2023-06-24T04:22:01;4.18;;;2.20;;
71303;SDS011;59091;47.446;19.148;2023-06-24T04:24:27;2.22;;;2.00;;
71303;SDS011;59091;47.446;19.148;2023-06-24T04:26:52;4.05;;;2.00;;
71303;SDS011;59091;47.446;19.148;2023-06-24T04:29:18;1.98;;;1.88;;
71303;SDS011;59091;47.446;19.148;2023-06-24T04:31:43;3.15;;;2.08;;
71303;SDS011;59091;47.446;19.148;2023-06-24T04:34:08;6.75;;;1.88;;
71303;SDS011;59091;47.446;19.148;2023-06-24T04:36:34;1.70;;;1.60;;
71303;SDS011;59091;47.446;19.148;2023-06-24T04:39:00;1.77;;;1.55;;
71303;SDS011;59091;47.446;19.148;2023-06-24T04:41:26;2.65;;;1.70;;
71303;SDS011;59091;47.446;19.148;2023-06-24T04:43:51;1.80;;;1.50;;
71303;SDS011;59091;47.446;19.148;2023-06-24T04:46:16;2.58;;;1.48;;
71303;SDS011;59091;47.446;19.148;2023-06-24T04:48:42;2.13;;;1.55;;
71303;SDS011;59091;47.446;19.148;2023-06-24T04:51:07;2.33;;;1.60;;
71303;SDS011;59091;47.446;19.148;2023-06-24T04:53:33;1.55;;;1.45;;
71303;SDS011;59091;47.446;19.148;2023-06-24T04:55:59;1.50;;;1.30;;
71303;SDS011;59091;47.446;19.148;2023-06-24T04:58:24;3.83;;;1.38;;
71303;SDS011;59091;47.446;19.148;2023-06-24T05:00:49;2.55;;;1.30;;
71303;SDS011;59091;47.446;19.148;2023-06-24T05:03:15;2.50;;;1.63;;
71303;SDS011;59091;47.446;19.148;2023-06-24T05:05:40;2.35;;;1.13;;
71303;SDS011;59091;47.446;19.148;2023-06-24T05:08:06;1.17;;;1.17;;
71303;SDS011;59091;47.446;19.148;2023-06-24T05:10:31;1.42;;;1.25;;
71303;SDS011;59091;47.446;19.148;2023-06-24T05:12:57;1.55;;;0.95;;
71303;SDS011;59091;47.446;19.148;2023-06-24T05:15:22;1.05;;;1.05;;
71303;SDS011;59091;47.446;19.148;2023-06-24T05:17:48;1.25;;;1.20;;
71303;SDS011;59091;47.446;19.148;2023-06-24T05:20:13;3.00;;;1.13;;
71303;SDS011;59091;47.446;19.148;2023-06-24T05:22:39;2.00;;;1.10;;
71303;SDS011;59091;47.446;19.148;2023-06-24T05:25:04;1.10;;;1.00;;
71303;SDS011;59091;47.446;19.148;2023-06-24T05:27:30;3.38;;;1.02;;
71303;SDS011;59091;47.446;19.148;2023-06-24T05:29:56;3.17;;;1.05;;
71303;SDS011;59091;47.446;19.148;2023-06-24T05:32:21;1.52;;;1.10;;
71303;SDS011;59091;47.446;19.148;2023-06-24T05:34:46;4.10;;;0.90;;
71303;SDS011;59091;47.446;19.148;2023-06-24T05:37:12;1.88;;;1.15;;
71303;SDS011;59091;47.446;19.148;2023-06-24T05:39:37;1.98;;;0.98;;
71303;SDS011;59091;47.446;19.148;2023-06-24T05:42:03;2.40;;;1.20;;
71303;SDS011;59091;47.446;19.148;2023-06-24T05:44:28;7.95;;;1.50;;
71303;SDS011;59091;47.446;19.148;2023-06-24T05:46:54;3.90;;;1.00;;
71303;SDS011;59091;47.446;19.148;2023-06-24T05:49:19;7.18;;;1.10;;
71303;SDS011;59091;47.446;19.148;2023-06-24T05:51:45;3.03;;;1.00;;
71303;SDS011;59091;47.446;19.148;2023-06-24T05:54:10;0.90;;;0.90;;
71303;SDS011;59091;47.446;19.148;2023-06-24T05:56:36;1.40;;;1.00;;
71303;SDS011;59091;47.446;19.148;2023-06-24T05:59:02;1.60;;;1.00;;
71303;SDS011;59091;47.446;19.148;2023-06-24T06:01:27;2.03;;;1.27;;
71303;SDS011;59091;47.446;19.148;2023-06-24T06:03:53;1.67;;;1.27;;
71303;SDS011;59091;47.446;19.148;2023-06-24T06:06:18;1.00;;;1.00;;
71303;SDS011;59091;47.446;19.148;2023-06-24T06:08:44;1.77;;;1.38;;
71303;SDS011;59091;47.446;19.148;2023-06-24T06:11:09;1.55;;;0.90;;
71303;SDS011;59091;47.446;19.148;2023-06-24T06:13:34;5.53;;;1.00;;
71303;SDS011;59091;47.446;19.148;2023-06-24T06:16:00;1.13;;;1.02;;
71303;SDS011;59091;47.446;19.148;2023-06-24T06:18:25;1.00;;;0.95;;
71303;SDS011;59091;47.446;19.148;2023-06-24T06:20:51;4.00;;;1.20;;
71303;SDS011;59091;47.446;19.148;2023-06-24T06:23:16;1.63;;;1.52;;
71303;SDS011;59091;47.446;19.148;2023-06-24T06:25:42;2.35;;;1.17;;
71303;SDS011;59091;47.446;19.148;2023-06-24T06:28:08;6.47;;;1.10;;
71303;SDS011;59091;47.446;19.148;2023-06-24T06:30:33;2.55;;;1.20;;
71303;SDS011;59091;47.446;19.148;2023-06-24T06:32:59;2.35;;;0.95;;
71303;SDS011;59091;47.446;19.148;2023-06-24T06:35:24;2.75;;;1.00;;
71303;SDS011;59091;47.446;19.148;2023-06-24T06:37:50;1.20;;;1.10;;
71303;SDS011;59091;47.446;19.148;2023-06-24T06:40:22;2.45;;;1.20;;
71303;SDS011;59091;47.446;19.148;2023-06-24T06:42:47;3.33;;;1.10;;
71303;SDS011;59091;47.446;19.148;2023-06-24T06:45:13;2.95;;;0.93;;
71303;SDS011;59091;47.446;19.148;2023-06-24T06:47:38;3.72;;;0.98;;
71303;SDS011;59091;47.446;19.148;2023-06-24T06:50:04;1.63;;;1.23;;
71303;SDS011;59091;47.446;19.148;2023-06-24T06:52:30;5.70;;;1.10;;
71303;SDS011;59091;47.446;19.148;2023-06-24T06:54:56;1.70;;;1.08;;
71303;SDS011;59091;47.446;19.148;2023-06-24T06:57:22;1.13;;;1.02;;
71303;SDS011;59091;47.446;19.148;2023-06-24T06:59:47;1.50;;;1.10;;
71303;SDS011;59091;47.446;19.148;2023-06-24T07:02:16;1.17;;;1.05;;
71303;SDS011;59091;47.446;19.148;2023-06-24T07:04:41;1.00;;;1.00;;
71303;SDS011;59091;47.446;19.148;2023-06-24T07:07:08;2.03;;;1.10;;
71303;SDS011;59091;47.446;19.148;2023-06-24T07:09:33;1.40;;;0.95;;
71303;SDS011;59091;47.446;19.148;2023-06-24T07:11:59;2.78;;;1.27;;
71303;SDS011;59091;47.446;19.148;2023-06-24T07:14:25;2.45;;;1.38;;
71303;SDS011;59091;47.446;19.148;2023-06-24T07:16:50;1.13;;;1.05;;
71303;SDS011;59091;47.446;19.148;2023-06-24T07:19:16;4.05;;;1.30;;
71303;SDS011;59091;47.446;19.148;2023-06-24T07:21:41;3.45;;;1.23;;
71303;SDS011;59091;47.446;19.148;2023-06-24T07:24:07;4.07;;;1.33;;
71303;SDS011;59091;47.446;19.148;2023-06-24T07:26:32;4.63;;;1.52;;
71303;SDS011;59091;47.446;19.148;2023-06-24T07:28:58;1.10;;;1.10;;
71303;SDS011;59091;47.446;19.148;2023-06-24T07:31:24;1.27;;;1.20;;
71303;SDS011;59091;47.446;19.148;2023-06-24T07:33:50;1.50;;;1.00;;
71303;SDS011;59091;47.446;19.148;2023-06-24T07:36:15;3.67;;;1.20;;
71303;SDS011;59091;47.446;19.148;2023-06-24T07:38:41;1.17;;;1.10;;
71303;SDS011;59091;47.446;19.148;2023-06-24T07:41:06;3.42;;;1.27;;
71303;SDS011;59091;47.446;19.148;2023-06-24T07:43:31;2.33;;;1.30;;
71303;SDS011;59091;47.446;19.148;2023-06-24T07:45:57;1.63;;;1.40;;
71303;SDS011;59091;47.446;19.148;2023-06-24T07:48:22;1.92;;;1.20;;
71303;SDS011;59091;47.446;19.148;2023-06-24T07:50:48;1.30;;;1.20;;
71303;SDS011;59091;47.446;19.148;2023-06-24T07:53:14;1.35;;;1.25;;
71303;SDS011;59091;47.446;19.148;2023-06-24T07:55:39;3.65;;;1.17;;
71303;SDS011;59091;47.446;19.148;2023-06-24T07:58:05;1.88;;;1.13;;
71303;SDS011;59091;47.446;19.148;2023-06-24T08:00:30;2.92;;;1.70;;
71303;SDS011;59091;47.446;19.148;2023-06-24T08:02:59;1.38;;;1.20;;
71303;SDS011;59091;47.446;19.148;2023-06-24T08:05:24;5.60;;;1.40;;
71303;SDS011;59091;47.446;19.148;2023-06-24T08:07:51;5.45;;;1.05;;
71303;SDS011;59091;47.446;19.148;2023-06-24T08:10:17;1.08;;;1.08;;
71303;SDS011;59091;47.446;19.148;2023-06-24T08:12:42;1.50;;;1.40;;
71303;SDS011;59091;47.446;19.148;2023-06-24T08:15:08;1.73;;;1.10;;
71303;SDS011;59091;47.446;19.148;2023-06-24T08:17:34;1.85;;;1.40;;
71303;SDS011;59091;47.446;19.148;2023-06-24T08:20:00;1.50;;;1.20;;
71303;SDS011;59091;47.446;19.148;2023-06-24T08:22:26;1.48;;;1.38;;
71303;SDS011;59091;47.446;19.148;2023-06-24T08:24:51;1.67;;;1.58;;
71303;SDS011;59091;47.446;19.148;2023-06-24T08:27:17;2.75;;;1.40;;
71303;SDS011;59091;47.446;19.148;2023-06-24T08:29:42;2.78;;;1.52;;
71303;SDS011;59091;47.446;19.148;2023-06-24T08:32:07;2.78;;;1.40;;
71303;SDS011;59091;47.446;19.148;2023-06-24T08:34:33;1.50;;;1.40;;
71303;SDS011;59091;47.446;19.148;2023-06-24T08:36:59;1.25;;;1.25;;
71303;SDS011;59091;47.446;19.148;2023-06-24T08:39:24;1.33;;;1.23;;
71303;SDS011;59091;47.446;19.148;2023-06-24T08:41:50;2.70;;;1.42;;
71303;SDS011;59091;47.446;19.148;2023-06-24T08:44:15;2.35;;;1.42;;
71303;SDS011;59091;47.446;19.148;2023-06-24T08:46:41;1.60;;;1.50;;
71303;SDS011;59091;47.446;19.148;2023-06-24T08:49:18;2.05;;;1.40;;
71303;SDS011;59091;47.446;19.148;2023-06-24T08:51:50;2.50;;;1.50;;
71303;SDS011;59091;47.446;19.148;2023-06-24T08:54:28;1.40;;;1.30;;
71303;SDS011;59091;47.446;19.148;2023-06-24T08:56:55;1.40;;;1.30;;
71303;SDS011;59091;47.446;19.148;2023-06-24T08:59:20;5.43;;;1.60;;
71303;SDS011;59091;47.446;19.148;2023-06-24T09:01:47;6.78;;;1.60;;
71303;SDS011;59091;47.446;19.148;2023-06-24T09:04:13;1.50;;;1.40;;
71303;SDS011;59091;47.446;19.148;2023-06-24T09:06:38;2.22;;;1.40;;
71303;SDS011;59091;47.446;19.148;2023-06-24T09:09:04;2.00;;;1.70;;
71303;SDS011;59091;47.446;19.148;2023-06-24T09:11:30;2.42;;;1.70;;
71303;SDS011;59091;47.446;19.148;2023-06-24T09:14:00;4.85;;;1.60;;
71303;SDS011;59091;47.446;19.148;2023-06-24T09:16:26;4.47;;;2.00;;
71303;SDS011;59091;47.446;19.148;2023-06-24T09:18:52;1.70;;;1.60;;
71303;SDS011;59091;47.446;19.148;2023-06-24T09:21:28;2.22;;;1.60;;
71303;SDS011;59091;47.446;19.148;2023-06-24T09:23:57;2.58;;;1.70;;
71303;SDS011;59091;47.446;19.148;2023-06-24T09:26:23;4.97;;;1.60;;
71303;SDS011;59091;47.446;19.148;2023-06-24T09:28:50;1.77;;;1.67;;
71303;SDS011;59091;47.446;19.148;2023-06-24T09:31:16;2.80;;;1.73;;
71303;SDS011;59091;47.446;19.148;2023-06-24T09:33:43;1.67;;;1.52;;
71303;SDS011;59091;47.446;19.148;2023-06-24T09:36:14;2.15;;;1.63;;
71303;SDS011;59091;47.446;19.148;2023-06-24T09:38:41;2.17;;;1.43;;
71303;SDS011;59091;47.446;19.148;2023-06-24T09:41:09;2.00;;;1.52;;
71303;SDS011;59091;47.446;19.148;2023-06-24T09:43:35;2.53;;;1.60;;
71303;SDS011;59091;47.446;19.148;2023-06-24T09:46:05;1.60;;;1.50;;
71303;SDS011;59091;47.446;19.148;2023-06-24T09:48:32;1.60;;;1.40;;
71303;SDS011;59091;47.446;19.148;2023-06-24T09:51:04;2.05;;;1.73;;
71303;SDS011;59091;47.446;19.148;2023-06-24T09:53:30;1.60;;;1.50;;
71303;SDS011;59091;47.446;19.148;2023-06-24T09:55:58;1.65;;;1.50;;
71303;SDS011;59091;47.446;19.148;2023-06-24T09:58:26;1.70;;;1.60;;
71303;SDS011;59091;47.446;19.148;2023-06-24T10:00:51;6.82;;;2.55;;
71303;SDS011;59091;47.446;19.148;2023-06-24T10:03:19;1.70;;;1.60;;
71303;SDS011;59091;47.446;19.148;2023-06-24T10:05:44;3.80;;;1.77;;
71303;SDS011;59091;47.446;19.148;2023-06-24T10:08:10;1.55;;;1.45;;
71303;SDS011;59091;47.446;19.148;2023-06-24T10:10:38;4.78;;;1.50;;
71303;SDS011;59091;47.446;19.148;2023-06-24T10:13:03;1.55;;;1.45;;
71303;SDS011;59091;47.446;19.148;2023-06-24T10:15:29;2.33;;;1.50;;
71303;SDS011;59091;47.446;19.148;2023-06-24T10:17:55;1.58;;;1.48;;
71303;SDS011;59091;47.446;19.148;2023-06-24T10:20:24;3.08;;;1.58;;
71303;SDS011;59091;47.446;19.148;2023-06-24T10:22:52;2.13;;;1.40;;
71303;SDS011;59091;47.446;19.148;2023-06-24T10:25:18;1.50;;;1.40;;
71303;SDS011;59091;47.446;19.148;2023-06-24T10:27:44;8.50;;;1.70;;
71303;SDS011;59091;47.446;19.148;2023-06-24T10:30:19;1.70;;;1.60;;
71303;SDS011;59091;47.446;19.148;2023-06-24T10:32:51;5.07;;;1.70;;
71303;SDS011;59091;47.446;19.148;2023-06-24T10:37:56;1.88;;;1.77;;
71303;SDS011;59091;47.446;19.148;2023-06-24T10:40:35;2.75;;;1.80;;
71303;SDS011;59091;47.446;19.148;2023-06-24T10:43:22;3.15;;;1.80;;
71303;SDS011;59091;47.446;19.148;2023-06-24T10:45:55;2.40;;;1.83;;
71303;SDS011;59091;47.446;19.148;2023-06-24T10:48:24;1.85;;;1.75;;
71303;SDS011;59091;47.446;19.148;2023-06-24T10:50:49;1.90;;;1.75;;
71303;SDS011;59091;47.446;19.148;2023-06-24T10:53:15;2.25;;;1.75;;
71303;SDS011;59091;47.446;19.148;2023-06-24T10:55:43;1.65;;;1.55;;
71303;SDS011;59091;47.446;19.148;2023-06-24T10:58:10;1.88;;;1.77;;
71303;SDS011;59091;47.446;19.148;2023-06-24T11:00:37;1.77;;;1.67;;
71303;SDS011;59091;47.446;19.148;2023-06-24T11:03:07;1.70;;;1.60;;
71303;SDS011;59091;47.446;19.148;2023-06-24T11:05:34;3.42;;;1.63;;
71303;SDS011;59091;47.446;19.148;2023-06-24T11:07:59;3.22;;;1.58;;
71303;SDS011;59091;47.446;19.148;2023-06-24T11:10:25;2.95;;;1.80;;
71303;SDS011;59091;47.446;19.148;2023-06-24T11:12:50;2.28;;;1.88;;
71303;SDS011;59091;47.446;19.148;2023-06-24T11:15:16;2.15;;;1.83;;
71303;SDS011;59091;47.446;19.148;2023-06-24T11:17:43;3.03;;;1.90;;
71303;SDS011;59091;47.446;19.148;2023-06-24T11:20:12;2.85;;;1.50;;
71303;SDS011;59091;47.446;19.148;2023-06-24T11:22:42;3.55;;;1.60;;
71303;SDS011;59091;47.446;19.148;2023-06-24T11:25:15;2.88;;;1.63;;
71303;SDS011;59091;47.446;19.148;2023-06-24T11:27:42;1.70;;;1.60;;
71303;SDS011;59091;47.446;19.148;2023-06-24T11:30:07;2.80;;;1.70;;
71303;SDS011;59091;47.446;19.148;2023-06-24T11:32:36;1.63;;;1.52;;
71303;SDS011;59091;47.446;19.148;2023-06-24T11:35:05;1.70;;;1.60;;
71303;SDS011;59091;47.446;19.148;2023-06-24T11:37:32;4.40;;;1.60;;
71303;SDS011;59091;47.446;19.148;2023-06-24T11:40:01;1.60;;;1.50;;
71303;SDS011;59091;47.446;19.148;2023-06-24T11:42:32;2.45;;;1.50;;
71303;SDS011;59091;47.446;19.148;2023-06-24T11:45:04;1.65;;;1.55;;
71303;SDS011;59091;47.446;19.148;2023-06-24T11:47:34;2.47;;;1.70;;
71303;SDS011;59091;47.446;19.148;2023-06-24T11:50:00;1.70;;;1.60;;
71303;SDS011;59091;47.446;19.148;2023-06-24T11:55:00;1.27;;;1.27;;
71303;SDS011;59091;47.446;19.148;2023-06-24T11:57:46;2.80;;;1.45;;
71303;SDS011;59091;47.446;19.148;2023-06-24T12:00:13;2.45;;;1.30;;
71303;SDS011;59091;47.446;19.148;2023-06-24T12:02:39;1.65;;;1.50;;
71303;SDS011;59091;47.446;19.148;2023-06-24T12:05:05;1.63;;;1.45;;
71303;SDS011;59091;47.446;19.148;2023-06-24T12:07:31;1.52;;;1.42;;
71303;SDS011;59091;47.446;19.148;2023-06-24T12:09:56;1.70;;;1.60;;
71303;SDS011;59091;47.446;19.148;2023-06-24T12:12:21;1.60;;;1.40;;
71303;SDS011;59091;47.446;19.148;2023-06-24T12:14:47;1.60;;;1.50;;
71303;SDS011;59091;47.446;19.148;2023-06-24T12:17:13;4.18;;;2.00;;
71303;SDS011;59091;47.446;19.148;2023-06-24T12:19:38;3.22;;;1.52;;
71303;SDS011;59091;47.446;19.148;2023-06-24T12:22:04;4.75;;;1.60;;
71303;SDS011;59091;47.446;19.148;2023-06-24T12:24:29;1.63;;;1.52;;
71303;SDS011;59091;47.446;19.148;2023-06-24T12:26:55;1.58;;;1.48;;
71303;SDS011;59091;47.446;19.148;2023-06-24T12:29:21;1.60;;;1.50;;
71303;SDS011;59091;47.446;19.148;2023-06-24T12:31:47;2.55;;;1.48;;
71303;SDS011;59091;47.446;19.148;2023-06-24T12:34:12;1.65;;;1.42;;
71303;SDS011;59091;47.446;19.148;2023-06-24T12:36:38;2.25;;;1.70;;
71303;SDS011;59091;47.446;19.148;2023-06-24T12:39:03;2.05;;;1.45;;
71303;SDS011;59091;47.446;19.148;2023-06-24T12:41:28;1.92;;;1.40;;
71303;SDS011;59091;47.446;19.148;2023-06-24T12:43:54;2.38;;;1.60;;
71303;SDS011;59091;47.446;19.148;2023-06-24T12:46:19;5.72;;;1.50;;
71303;SDS011;59091;47.446;19.148;2023-06-24T12:48:45;3.30;;;1.58;;
71303;SDS011;59091;47.446;19.148;2023-06-24T12:51:10;4.32;;;1.45;;
71303;SDS011;59091;47.446;19.148;2023-06-24T12:53:36;3.47;;;1.60;;
71303;SDS011;59091;47.446;19.148;2023-06-24T12:56:01;1.50;;;1.40;;
71303;SDS011;59091;47.446;19.148;2023-06-24T12:58:27;4.15;;;1.30;;
71303;SDS011;59091;47.446;19.148;2023-06-24T13:00:52;1.40;;;1.30;;
71303;SDS011;59091;47.446;19.148;2023-06-24T13:03:18;2.85;;;1.45;;
71303;SDS011;59091;47.446;19.148;2023-06-24T13:05:44;5.28;;;1.40;;
71303;SDS011;59091;47.446;19.148;2023-06-24T13:08:09;3.75;;;1.45;;
71303;SDS011;59091;47.446;19.148;2023-06-24T13:10:36;1.50;;;1.40;;
71303;SDS011;59091;47.446;19.148;2023-06-24T13:13:02;1.55;;;1.17;;
71303;SDS011;59091;47.446;19.148;2023-06-24T13:15:27;2.95;;;1.77;;
71303;SDS011;59091;47.446;19.148;2023-06-24T13:17:53;2.60;;;2.40;;
71303;SDS011;59091;47.446;19.148;2023-06-24T13:20:18;1.80;;;1.70;;
71303;SDS011;59091;47.446;19.148;2023-06-24T13:22:44;1.60;;;1.50;;
71303;SDS011;59091;47.446;19.148;2023-06-24T13:25:09;2.72;;;1.65;;
71303;SDS011;59091;47.446;19.148;2023-06-24T13:27:35;1.98;;;1.60;;
71303;SDS011;59091;47.446;19.148;2023-06-24T13:30:00;2.45;;;1.50;;
71303;SDS011;59091;47.446;19.148;2023-06-24T13:32:26;12.88;;;1.55;;
71303;SDS011;59091;47.446;19.148;2023-06-24T13:34:51;3.35;;;1.60;;
71303;SDS011;59091;47.446;19.148;2023-06-24T13:37:17;1.75;;;1.63;;
71303;SDS011;59091;47.446;19.148;2023-06-24T13:39:42;3.33;;;1.60;;
71303;SDS011;59091;47.446;19.148;2023-06-24T13:42:08;2.47;;;1.58;;
71303;SDS011;59091;47.446;19.148;2023-06-24T13:44:33;2.85;;;1.60;;
71303;SDS011;59091;47.446;19.148;2023-06-24T13:46:59;2.92;;;1.48;;
71303;SDS011;59091;47.446;19.148;2023-06-24T13:49:25;1.50;;;1.40;;
71303;SDS011;59091;47.446;19.148;2023-06-24T13:51:50;1.67;;;1.40;;
71303;SDS011;59091;47.446;19.148;2023-06-24T13:54:16;2.00;;;1.80;;
71303;SDS011;59091;47.446;19.148;2023-06-24T13:56:41;2.60;;;1.60;;
71303;SDS011;59091;47.446;19.148;2023-06-24T13:59:07;2.10;;;1.70;;
71303;SDS011;59091;47.446;19.148;2023-06-24T14:01:32;1.80;;;1.70;;
71303;SDS011;59091;47.446;19.148;2023-06-24T14:03:58;2.05;;;1.90;;
71303;SDS011;59091;47.446;19.148;2023-06-24T14:06:23;3.20;;;1.90;;
71303;SDS011;59091;47.446;19.148;2023-06-24T14:08:50;1.92;;;1.52;;
71303;SDS011;59091;47.446;19.148;2023-06-24T14:11:16;3.17;;;1.70;;
71303;SDS011;59091;47.446;19.148;2023-06-24T14:13:42;1.83;;;1.60;;
71303;SDS011;59091;47.446;19.148;2023-06-24T14:16:08;3.30;;;2.00;;
71303;SDS011;59091;47.446;19.148;2023-06-24T14:18:35;1.70;;;1.60;;
71303;SDS011;59091;47.446;19.148;2023-06-24T14:21:01;2.90;;;1.90;;
71303;SDS011;59091;47.446;19.148;2023-06-24T14:23:28;2.28;;;2.10;;
71303;SDS011;59091;47.446;19.148;2023-06-24T14:25:55;2.78;;;1.98;;
71303;SDS011;59091;47.446;19.148;2023-06-24T14:28:21;2.00;;;1.90;;
71303;SDS011;59091;47.446;19.148;2023-06-24T14:30:47;2.50;;;2.00;;
71303;SDS011;59091;47.446;19.148;2023-06-24T14:33:13;2.22;;;2.00;;
71303;SDS011;59091;47.446;19.148;2023-06-24T14:35:38;2.50;;;2.30;;
71303;SDS011;59091;47.446;19.148;2023-06-24T14:38:04;2.10;;;2.00;;
71303;SDS011;59091;47.446;19.148;2023-06-24T14:40:30;2.70;;;2.47;;
71303;SDS011;59091;47.446;19.148;2023-06-24T14:42:56;2.40;;;2.30;;
71303;SDS011;59091;47.446;19.148;2023-06-24T14:45:22;3.03;;;2.00;;
71303;SDS011;59091;47.446;19.148;2023-06-24T14:47:47;3.08;;;2.20;;
71303;SDS011;59091;47.446;19.148;2023-06-24T14:50:13;2.70;;;2.50;;
71303;SDS011;59091;47.446;19.148;2023-06-24T14:52:39;3.35;;;2.40;;